Antares — DFJQ — position and weather

sailwx.info

Track history (hours):
 
Tides and Currents Weather Stations Pressure Air Temp Water Temp Dewpoint Dewpoint Depression Visibility Wind Speed Wind Dir Waves Ship Positions

Antares

Last reported at 2014-Jul-24 03:33 UTC. Time now 2014-Jul-24 03:56 UTC.
Position N 53°30' E 009°57'.

Length 79 m; draft 4 m.

Type: Ship. MMSI: 218777000.

Date/timePositionNaut miles runAvg speedWind from/ knotsBaromVisibWave heightAir tempDewpointWater temp
2014-Jul-24 03:33N 53°30' E 009°57'0 0.0
2014-Jul-24 02:32N 53°30' E 009°57'0 0.0
2014-Jul-24 01:32N 53°30' E 009°57'0 0.0
2014-Jul-24 00:32N 53°30' E 009°57'1 0.6
2014-Jul-23 23:34N 53°31' E 009°57'1 0.9
2014-Jul-23 22:13N 53°32' E 009°57'0 0.0
2014-Jul-23 21:31N 53°32' E 009°57'0 0.0
2014-Jul-23 20:32N 53°32' E 009°57'0 0.0
2014-Jul-23 19:25N 53°32' E 009°57'0 0.0
2014-Jul-23 17:07N 53°32' E 009°57'0 0.0
2014-Jul-23 16:32N 53°32' E 009°57'0 0.0
2014-Jul-23 15:31N 53°32' E 009°57'0 0.0
2014-Jul-23 14:07N 53°32' E 009°57'0 0.0
2014-Jul-23 13:25N 53°32' E 009°57'0 0.0
2014-Jul-23 12:31N 53°32' E 009°57'0 0.3
2014-Jul-23 11:33N 53°32' E 009°57'2 1.9
2014-Jul-23 10:33N 53°30' E 009°58'0 0.0
2014-Jul-23 09:30N 53°30' E 009°58'0 0.0
2014-Jul-23 08:33N 53°30' E 009°58'0 0.0
2014-Jul-23 07:33N 53°30' E 009°58'3 2.8
2014-Jul-23 06:33N 53°32' E 009°55'0 0.0
2014-Jul-23 05:28N 53°32' E 009°55'0 0.0
2014-Jul-23 04:31N 53°32' E 009°55'0 0.0
2014-Jul-23 03:31N 53°32' E 009°55'0 0.0
2014-Jul-23 02:28N 53°32' E 009°55'2 2.7
2014-Jul-23 01:33N 53°30' E 009°57'0 0.0
2014-Jul-23 00:33N 53°30' E 009°57'0 0.0
2014-Jul-22 23:24N 53°30' E 009°57'0 0.5
2014-Jul-22 22:34N 53°30' E 009°58'0 0.1
2014-Jul-22 21:33N 53°30' E 009°58'0 0.0
2014-Jul-22 20:30N 53°30' E 009°58'0 0.0
2014-Jul-22 19:30N 53°30' E 009°58'0 0.0
2014-Jul-22 18:30N 53°30' E 009°58'0 0.0
2014-Jul-22 17:30N 53°30' E 009°58'1 0.1
2014-Jul-22 12:31N 53°30' E 009°57'0 0.0
2014-Jul-22 11:31N 53°30' E 009°57'0 0.0
2014-Jul-22 10:31N 53°30' E 009°57'0 0.0
2014-Jul-22 09:25N 53°30' E 009°57'0 0.0
2014-Jul-22 08:28N 53°30' E 009°57'0 0.0
2014-Jul-22 07:31N 53°30' E 009°57'0 0.0
2014-Jul-22 06:31N 53°30' E 009°57'0 0.0
2014-Jul-22 05:31N 53°30' E 009°57'0 0.0
2014-Jul-22 04:31N 53°30' E 009°57'0 0.0
2014-Jul-22 03:31N 53°30' E 009°57'0 0.0
2014-Jul-22 02:31N 53°30' E 009°57'0 0.0
2014-Jul-22 01:31N 53°30' E 009°57'0 0.0
2014-Jul-22 00:31N 53°30' E 009°57'0 0.0
2014-Jul-21 23:31N 53°30' E 009°57'0 0.0
2014-Jul-21 22:28N 53°30' E 009°57'0 0.0
2014-Jul-21 21:31N 53°30' E 009°57'0 0.0
2014-Jul-21 20:31N 53°30' E 009°57'0 0.0
2014-Jul-21 20:13N 53°30' E 009°57'0 0.0
2014-Jul-21 19:31N 53°30' E 009°57'0 0.0
2014-Jul-21 18:31N 53°30' E 009°57'0 0.0
2014-Jul-21 17:31N 53°30' E 009°57'0 0.0
2014-Jul-21 15:31N 53°30' E 009°57'0 0.0
2014-Jul-21 14:31N 53°30' E 009°57'0 0.0
2014-Jul-21 13:31N 53°30' E 009°57'0 0.0
2014-Jul-21 12:28N 53°30' E 009°57'0 0.0
2014-Jul-21 11:31N 53°30' E 009°57'0 0.0
2014-Jul-21 10:28N 53°30' E 009°57'0 0.0
2014-Jul-21 09:31N 53°30' E 009°57'0 0.0
2014-Jul-21 08:28N 53°30' E 009°57'0 0.4
2014-Jul-21 07:33N 53°31' E 009°57'1 0.6
2014-Jul-21 06:30N 53°31' E 009°56'0 0.0
2014-Jul-21 05:30N 53°31' E 009°56'0 0.0
2014-Jul-21 04:27N 53°31' E 009°56'0 0.0
2014-Jul-21 03:24N 53°31' E 009°56'0 0.0
2014-Jul-21 02:30N 53°31' E 009°56'0 0.0
2014-Jul-21 01:30N 53°31' E 009°56'0 0.0
2014-Jul-21 00:24N 53°31' E 009°56'0 0.0
2014-Jul-20 23:25N 53°31' E 009°56'1 1.3
2014-Jul-20 22:33N 53°30' E 009°58'0 0.2
2014-Jul-20 21:32N 53°30' E 009°58'0 0.0
2014-Jul-20 20:32N 53°30' E 009°58'1 0.6
2014-Jul-20 19:33N 53°30' E 009°57'0 0.0
2014-Jul-20 18:29N 53°30' E 009°57'0 0.0
2014-Jul-20 17:32N 53°30' E 009°57'0 0.0
2014-Jul-20 16:29N 53°30' E 009°57'0 0.0
2014-Jul-20 15:26N 53°30' E 009°57'0 0.0
2014-Jul-20 14:32N 53°30' E 009°57'0 0.0
2014-Jul-20 13:17N 53°30' E 009°57'0 0.0
2014-Jul-20 12:29N 53°30' E 009°57'0 0.0
2014-Jul-20 11:29N 53°30' E 009°57'0 0.0
2014-Jul-20 10:29N 53°30' E 009°57'0 0.3
2014-Jul-20 09:33N 53°31' E 009°57'0 0.4
2014-Jul-20 08:33N 53°30' E 009°56'0 0.0
2014-Jul-20 07:27N 53°30' E 009°56'0 0.0
2014-Jul-20 06:27N 53°30' E 009°56'0 0.0
2014-Jul-20 05:30N 53°30' E 009°56'1 0.9
2014-Jul-20 04:34N 53°30' E 009°58'0 0.1
2014-Jul-20 03:31N 53°30' E 009°58'0 0.0
2014-Jul-20 02:31N 53°30' E 009°58'0 0.0
2014-Jul-20 01:25N 53°30' E 009°58'0 0.0
2014-Jul-20 00:31N 53°30' E 009°58'0 0.0
2014-Jul-19 23:31N 53°30' E 009°58'0 0.0
2014-Jul-19 22:31N 53°30' E 009°58'0 0.5
2014-Jul-19 21:34N 53°30' E 009°57'2 1.6
2014-Jul-19 20:34N 53°32' E 009°58'0 0.0
2014-Jul-19 19:30N 53°32' E 009°58'0 0.0
2014-Jul-19 18:33N 53°32' E 009°58'0 0.0
2014-Jul-19 17:33N 53°32' E 009°58'0 0.0
2014-Jul-19 16:33N 53°32' E 009°58'1 1.0
2014-Jul-19 15:33N 53°33' E 009°56'0 0.0
2014-Jul-19 14:33N 53°33' E 009°56'0 0.0
2014-Jul-19 13:28N 53°33' E 009°56'0 0.0
2014-Jul-19 12:32N 53°33' E 009°56'0 0.0
2014-Jul-19 11:32N 53°33' E 009°56'0 0.0
2014-Jul-19 10:32N 53°33' E 009°56'0 0.0
2014-Jul-19 09:32N 53°33' E 009°56'0 0.0
2014-Jul-19 08:33N 53°33' E 009°56'1 0.7
2014-Jul-19 07:16N 53°32' E 009°57'0 0.0
2014-Jul-19 06:31N 53°32' E 009°57'0 0.0
2014-Jul-19 05:31N 53°32' E 009°57'0 0.0
2014-Jul-19 04:31N 53°32' E 009°57'0 0.0
2014-Jul-19 03:31N 53°32' E 009°57'0 0.0
2014-Jul-19 02:33N 53°32' E 009°57'2 1.7
2014-Jul-19 01:33N 53°30' E 009°58'0 0.0
2014-Jul-19 00:33N 53°30' E 009°58'0 0.0
2014-Jul-18 23:33N 53°30' E 009°58'0 0.0
2014-Jul-18 22:33N 53°30' E 009°58'0 0.0
2014-Jul-18 21:27N 53°30' E 009°58'0 0.1
2014-Jul-18 20:34N 53°30' E 009°58'2 1.6
2014-Jul-18 19:30N 53°32' E 009°57'0 0.0
2014-Jul-18 18:33N 53°32' E 009°57'0 0.0
2014-Jul-18 17:33N 53°32' E 009°57'0 0.0
2014-Jul-18 16:33N 53°32' E 009°57'0 0.0
2014-Jul-18 15:33N 53°32' E 009°57'0 0.0
2014-Jul-18 14:27N 53°32' E 009°57'0 0.0
2014-Jul-18 13:30N 53°32' E 009°57'0 0.0
2014-Jul-18 12:24N 53°32' E 009°57'0 0.0
2014-Jul-18 11:30N 53°32' E 009°57'0 0.0
2014-Jul-18 10:27N 53°32' E 009°57'0 0.0
2014-Jul-18 09:31N 53°32' E 009°57'0 0.0
2014-Jul-18 08:30N 53°32' E 009°57'0 0.0
2014-Jul-18 07:31N 53°32' E 009°57'0 0.0
2014-Jul-18 06:33N 53°32' E 009°57'0 0.0
2014-Jul-18 05:33N 53°32' E 009°57'0 0.0
2014-Jul-18 04:33N 53°32' E 009°57'0 0.0
2014-Jul-18 03:30N 53°32' E 009°57'0 0.0
2014-Jul-18 02:33N 53°32' E 009°57'0 0.0
2014-Jul-18 01:33N 53°32' E 009°57'0 0.0
2014-Jul-18 00:33N 53°32' E 009°57'0 0.1
2014-Jul-17 23:33N 53°32' E 009°57'1 1.2
2014-Jul-17 22:28N 53°32' E 009°55'0 0.0
2014-Jul-17 21:31N 53°32' E 009°55'0 0.0
2014-Jul-17 20:31N 53°32' E 009°55'0 0.0
2014-Jul-17 19:28N 53°32' E 009°55'0 0.1
2014-Jul-17 18:33N 53°32' E 009°55'1 1.4
2014-Jul-17 17:31N 53°32' E 009°58'0 0.0
2014-Jul-17 16:31N 53°32' E 009°58'0 0.0
2014-Jul-17 15:31N 53°32' E 009°58'0 0.0
2014-Jul-17 14:31N 53°32' E 009°58'0 0.0
2014-Jul-17 13:31N 53°32' E 009°58'1 0.9
2014-Jul-17 12:34N 53°32' E 009°56'2 2.2
2014-Jul-17 11:33N 53°30' E 009°58'0 0.0
2014-Jul-17 10:28N 53°30' E 009°58'0 0.0
2014-Jul-17 09:28N 53°30' E 009°58'0 0.0
2014-Jul-17 08:32N 53°30' E 009°58'0 0.0
2014-Jul-17 07:28N 53°30' E 009°58'0 0.0
2014-Jul-17 06:31N 53°30' E 009°58'0 0.1
2014-Jul-17 05:33N 53°30' E 009°58'0 0.4
2014-Jul-17 04:29N 53°30' E 009°57'0 0.0
2014-Jul-17 03:29N 53°30' E 009°57'0 0.0
2014-Jul-17 02:32N 53°30' E 009°57'0 0.0
2014-Jul-17 01:32N 53°30' E 009°57'0 0.0
2014-Jul-17 00:26N 53°30' E 009°57'0 0.0
2014-Jul-16 23:17N 53°30' E 009°57'0 0.0
2014-Jul-16 22:29N 53°30' E 009°57'0 0.0
2014-Jul-16 21:29N 53°30' E 009°57'0 0.0
2014-Jul-16 20:32N 53°30' E 009°57'0 0.0
2014-Jul-16 19:32N 53°30' E 009°57'0 0.0
2014-Jul-16 18:29N 53°30' E 009°57'0 0.0
2014-Jul-16 17:33N 53°30' E 009°57'1 0.5
2014-Jul-16 16:30N 53°30' E 009°58'0 0.0
2014-Jul-16 15:33N 53°30' E 009°58'0 0.0
2014-Jul-16 14:30N 53°30' E 009°58'0 0.0
2014-Jul-16 13:33N 53°30' E 009°58'3 2.9
2014-Jul-16 12:33N 53°32' E 009°55'1 0.6
2014-Jul-16 11:23N 53°32' E 009°55'0 0.0
2014-Jul-16 10:32N 53°32' E 009°55'0 0.0
2014-Jul-16 09:29N 53°32' E 009°55'0 0.0
2014-Jul-16 08:32N 53°32' E 009°55'0 0.0
2014-Jul-16 07:32N 53°32' E 009°55'0 0.0
2014-Jul-16 06:29N 53°32' E 009°55'0 0.1
2014-Jul-16 05:33N 53°32' E 009°55'2 2.0
2014-Jul-16 04:33N 53°30' E 009°57'0 0.4
2014-Jul-16 03:33N 53°30' E 009°58'0 0.0
2014-Jul-16 02:30N 53°30' E 009°58'0 0.0
2014-Jul-16 01:33N 53°30' E 009°58'0 0.0
2014-Jul-16 00:33N 53°30' E 009°58'0 0.0
2014-Jul-15 23:30N 53°30' E 009°58'0 0.0
2014-Jul-15 22:27N 53°30' E 009°58'0 0.0
2014-Jul-15 21:33N 53°30' E 009°58'0 0.0
2014-Jul-15 20:30N 53°30' E 009°58'0 0.0
2014-Jul-15 19:30N 53°30' E 009°58'0 0.0
2014-Jul-15 18:30N 53°30' E 009°58'2 2.3
2014-Jul-15 17:33N 53°32' E 009°56'2 2.2
2014-Jul-15 16:33N 53°32' E 009°60'0 0.0
2014-Jul-15 15:17N 53°32' E 009°60'0 0.0
2014-Jul-15 14:23N 53°32' E 009°60'0 0.0
2014-Jul-15 13:20N 53°32' E 009°60'0 0.0
2014-Jul-15 12:22N 53°32' E 009°60'0 0.0
2014-Jul-15 11:31N 53°32' E 009°60'0 0.0
2014-Jul-15 10:31N 53°32' E 009°60'2 2.4
2014-Jul-15 09:33N 53°32' E 009°56'2 1.7
2014-Jul-15 08:19N 53°30' E 009°57'0 0.0
2014-Jul-15 07:31N 53°30' E 009°57'0 0.0
2014-Jul-15 06:19N 53°30' E 009°57'0 0.0
2014-Jul-15 05:31N 53°30' E 009°57'0 0.0
2014-Jul-15 04:31N 53°30' E 009°57'0 0.0
2014-Jul-15 03:28N 53°30' E 009°57'0 0.0
2014-Jul-15 02:31N 53°30' E 009°57'0 0.0
2014-Jul-15 01:31N 53°30' E 009°57'0 0.0
2014-Jul-15 00:31N 53°30' E 009°57'0 0.0
2014-Jul-14 23:31N 53°30' E 009°57'0 0.0
2014-Jul-14 22:25N 53°30' E 009°57'0 0.0
2014-Jul-14 21:31N 53°30' E 009°57'0 0.0
2014-Jul-14 20:31N 53°30' E 009°57'3 3.0
2014-Jul-14 19:33N 53°32' E 009°54'8 7.9
2014-Jul-14 18:33N 53°34' E 009°41'8 7.7
2014-Jul-14 17:32N 53°39' E 009°31'9 9.3
2014-Jul-14 16:33N 53°47' E 009°23'1010.0
2014-Jul-14 15:33N 53°53' E 009°09'1111.0
2014-Jul-14 14:33N 53°50' E 008°51'1110.6
2014-Jul-14 13:33N 53°57' E 008°37'1111.4
2014-Jul-14 12:33N 53°59' E 008°18'9 8.9
2014-Jul-14 11:33N 53°54' E 008°07'8 8.2
2014-Jul-14 10:33N 53°46' E 008°11'8 7.7
2014-Jul-14 09:33N 53°41' E 008°22'9 8.8
2014-Jul-14 08:33N 53°35' E 008°32'4 3.5
2014-Jul-14 07:32N 53°31' E 008°32'0 0.0
2014-Jul-14 06:32N 53°31' E 008°32'0 0.0
2014-Jul-14 05:33N 53°31' E 008°32'0 0.0
2014-Jul-14 04:32N 53°31' E 008°32'  
Track history (hours):
 
Tides and Currents Weather Stations Pressure Air Temp Water Temp Dewpoint Dewpoint Depression Visibility Wind Speed Wind Dir Waves Ship Positions

Antares

Last reported at 2014-Jul-24 03:33 UTC. Time now 2014-Jul-24 03:56 UTC.
Position N 53°30' E 009°57'.

Length 79 m; draft 4 m.

Type: Ship. MMSI: 218777000.

Date/timePositionNaut miles runAvg speedWind from/ knotsBaromVisibWave heightAir tempDewpointWater temp
2014-Jul-24 03:33N 53°30' E 009°57'0 0.0
2014-Jul-24 02:32N 53°30' E 009°57'0 0.0
2014-Jul-24 01:32N 53°30' E 009°57'0 0.0
2014-Jul-24 00:32N 53°30' E 009°57'1 0.6
2014-Jul-23 23:34N 53°31' E 009°57'1 0.9
2014-Jul-23 22:13N 53°32' E 009°57'0 0.0
2014-Jul-23 21:31N 53°32' E 009°57'0 0.0
2014-Jul-23 20:32N 53°32' E 009°57'0 0.0
2014-Jul-23 19:25N 53°32' E 009°57'0 0.0
2014-Jul-23 17:07N 53°32' E 009°57'0 0.0
2014-Jul-23 16:32N 53°32' E 009°57'0 0.0
2014-Jul-23 15:31N 53°32' E 009°57'0 0.0
2014-Jul-23 14:07N 53°32' E 009°57'0 0.0
2014-Jul-23 13:25N 53°32' E 009°57'0 0.0
2014-Jul-23 12:31N 53°32' E 009°57'0 0.3
2014-Jul-23 11:33N 53°32' E 009°57'2 1.9
2014-Jul-23 10:33N 53°30' E 009°58'0 0.0
2014-Jul-23 09:30N 53°30' E 009°58'0 0.0
2014-Jul-23 08:33N 53°30' E 009°58'0 0.0
2014-Jul-23 07:33N 53°30' E 009°58'3 2.8
2014-Jul-23 06:33N 53°32' E 009°55'0 0.0
2014-Jul-23 05:28N 53°32' E 009°55'0 0.0
2014-Jul-23 04:31N 53°32' E 009°55'0 0.0
2014-Jul-23 03:31N 53°32' E 009°55'0 0.0
2014-Jul-23 02:28N 53°32' E 009°55'2 2.7
2014-Jul-23 01:33N 53°30' E 009°57'0 0.0
2014-Jul-23 00:33N 53°30' E 009°57'0 0.0
2014-Jul-22 23:24N 53°30' E 009°57'0 0.5
2014-Jul-22 22:34N 53°30' E 009°58'0 0.1
2014-Jul-22 21:33N 53°30' E 009°58'0 0.0
2014-Jul-22 20:30N 53°30' E 009°58'0 0.0
2014-Jul-22 19:30N 53°30' E 009°58'0 0.0
2014-Jul-22 18:30N 53°30' E 009°58'0 0.0
2014-Jul-22 17:30N 53°30' E 009°58'1 0.1
2014-Jul-22 12:31N 53°30' E 009°57'0 0.0
2014-Jul-22 11:31N 53°30' E 009°57'0 0.0
2014-Jul-22 10:31N 53°30' E 009°57'0 0.0
2014-Jul-22 09:25N 53°30' E 009°57'0 0.0
2014-Jul-22 08:28N 53°30' E 009°57'0 0.0
2014-Jul-22 07:31N 53°30' E 009°57'0 0.0
2014-Jul-22 06:31N 53°30' E 009°57'0 0.0
2014-Jul-22 05:31N 53°30' E 009°57'0 0.0
2014-Jul-22 04:31N 53°30' E 009°57'0 0.0
2014-Jul-22 03:31N 53°30' E 009°57'0 0.0
2014-Jul-22 02:31N 53°30' E 009°57'0 0.0
2014-Jul-22 01:31N 53°30' E 009°57'0 0.0
2014-Jul-22 00:31N 53°30' E 009°57'0 0.0
2014-Jul-21 23:31N 53°30' E 009°57'0 0.0
2014-Jul-21 22:28N 53°30' E 009°57'0 0.0
2014-Jul-21 21:31N 53°30' E 009°57'0 0.0
2014-Jul-21 20:31N 53°30' E 009°57'0 0.0
2014-Jul-21 20:13N 53°30' E 009°57'0 0.0
2014-Jul-21 19:31N 53°30' E 009°57'0 0.0
2014-Jul-21 18:31N 53°30' E 009°57'0 0.0
2014-Jul-21 17:31N 53°30' E 009°57'0 0.0
2014-Jul-21 15:31N 53°30' E 009°57'0 0.0
2014-Jul-21 14:31N 53°30' E 009°57'0 0.0
2014-Jul-21 13:31N 53°30' E 009°57'0 0.0
2014-Jul-21 12:28N 53°30' E 009°57'0 0.0
2014-Jul-21 11:31N 53°30' E 009°57'0 0.0
2014-Jul-21 10:28N 53°30' E 009°57'0 0.0
2014-Jul-21 09:31N 53°30' E 009°57'0 0.0
2014-Jul-21 08:28N 53°30' E 009°57'0 0.4
2014-Jul-21 07:33N 53°31' E 009°57'1 0.6
2014-Jul-21 06:30N 53°31' E 009°56'0 0.0
2014-Jul-21 05:30N 53°31' E 009°56'0 0.0
2014-Jul-21 04:27N 53°31' E 009°56'0 0.0
2014-Jul-21 03:24N 53°31' E 009°56'0 0.0
2014-Jul-21 02:30N 53°31' E 009°56'0 0.0
2014-Jul-21 01:30N 53°31' E 009°56'0 0.0
2014-Jul-21 00:24N 53°31' E 009°56'0 0.0
2014-Jul-20 23:25N 53°31' E 009°56'1 1.3
2014-Jul-20 22:33N 53°30' E 009°58'0 0.2
2014-Jul-20 21:32N 53°30' E 009°58'0 0.0
2014-Jul-20 20:32N 53°30' E 009°58'1 0.6
2014-Jul-20 19:33N 53°30' E 009°57'0 0.0
2014-Jul-20 18:29N 53°30' E 009°57'0 0.0
2014-Jul-20 17:32N 53°30' E 009°57'0 0.0
2014-Jul-20 16:29N 53°30' E 009°57'0 0.0
2014-Jul-20 15:26N 53°30' E 009°57'0 0.0
2014-Jul-20 14:32N 53°30' E 009°57'0 0.0
2014-Jul-20 13:17N 53°30' E 009°57'0 0.0
2014-Jul-20 12:29N 53°30' E 009°57'0 0.0
2014-Jul-20 11:29N 53°30' E 009°57'0 0.0
2014-Jul-20 10:29N 53°30' E 009°57'0 0.3
2014-Jul-20 09:33N 53°31' E 009°57'0 0.4
2014-Jul-20 08:33N 53°30' E 009°56'0 0.0
2014-Jul-20 07:27N 53°30' E 009°56'0 0.0
2014-Jul-20 06:27N 53°30' E 009°56'0 0.0
2014-Jul-20 05:30N 53°30' E 009°56'1 0.9
2014-Jul-20 04:34N 53°30' E 009°58'0 0.1
2014-Jul-20 03:31N 53°30' E 009°58'0 0.0
2014-Jul-20 02:31N 53°30' E 009°58'0 0.0
2014-Jul-20 01:25N 53°30' E 009°58'0 0.0
2014-Jul-20 00:31N 53°30' E 009°58'0 0.0
2014-Jul-19 23:31N 53°30' E 009°58'0 0.0
2014-Jul-19 22:31N 53°30' E 009°58'0 0.5
2014-Jul-19 21:34N 53°30' E 009°57'2 1.6
2014-Jul-19 20:34N 53°32' E 009°58'0 0.0
2014-Jul-19 19:30N 53°32' E 009°58'0 0.0
2014-Jul-19 18:33N 53°32' E 009°58'0 0.0
2014-Jul-19 17:33N 53°32' E 009°58'0 0.0
2014-Jul-19 16:33N 53°32' E 009°58'1 1.0
2014-Jul-19 15:33N 53°33' E 009°56'0 0.0
2014-Jul-19 14:33N 53°33' E 009°56'0 0.0
2014-Jul-19 13:28N 53°33' E 009°56'0 0.0
2014-Jul-19 12:32N 53°33' E 009°56'0 0.0
2014-Jul-19 11:32N 53°33' E 009°56'0 0.0
2014-Jul-19 10:32N 53°33' E 009°56'0 0.0
2014-Jul-19 09:32N 53°33' E 009°56'0 0.0
2014-Jul-19 08:33N 53°33' E 009°56'1 0.7
2014-Jul-19 07:16N 53°32' E 009°57'0 0.0
2014-Jul-19 06:31N 53°32' E 009°57'0 0.0
2014-Jul-19 05:31N 53°32' E 009°57'0 0.0
2014-Jul-19 04:31N 53°32' E 009°57'0 0.0
2014-Jul-19 03:31N 53°32' E 009°57'0 0.0
2014-Jul-19 02:33N 53°32' E 009°57'2 1.7
2014-Jul-19 01:33N 53°30' E 009°58'0 0.0
2014-Jul-19 00:33N 53°30' E 009°58'0 0.0
2014-Jul-18 23:33N 53°30' E 009°58'0 0.0
2014-Jul-18 22:33N 53°30' E 009°58'0 0.0
2014-Jul-18 21:27N 53°30' E 009°58'0 0.1
2014-Jul-18 20:34N 53°30' E 009°58'2 1.6
2014-Jul-18 19:30N 53°32' E 009°57'0 0.0
2014-Jul-18 18:33N 53°32' E 009°57'0 0.0
2014-Jul-18 17:33N 53°32' E 009°57'0 0.0
2014-Jul-18 16:33N 53°32' E 009°57'0 0.0
2014-Jul-18 15:33N 53°32' E 009°57'0 0.0
2014-Jul-18 14:27N 53°32' E 009°57'0 0.0
2014-Jul-18 13:30N 53°32' E 009°57'0 0.0
2014-Jul-18 12:24N 53°32' E 009°57'0 0.0
2014-Jul-18 11:30N 53°32' E 009°57'0 0.0
2014-Jul-18 10:27N 53°32' E 009°57'0 0.0
2014-Jul-18 09:31N 53°32' E 009°57'0 0.0
2014-Jul-18 08:30N 53°32' E 009°57'0 0.0
2014-Jul-18 07:31N 53°32' E 009°57'0 0.0
2014-Jul-18 06:33N 53°32' E 009°57'0 0.0
2014-Jul-18 05:33N 53°32' E 009°57'0 0.0
2014-Jul-18 04:33N 53°32' E 009°57'0 0.0
2014-Jul-18 03:30N 53°32' E 009°57'0 0.0
2014-Jul-18 02:33N 53°32' E 009°57'0 0.0
2014-Jul-18 01:33N 53°32' E 009°57'0 0.0
2014-Jul-18 00:33N 53°32' E 009°57'0 0.1
2014-Jul-17 23:33N 53°32' E 009°57'1 1.2
2014-Jul-17 22:28N 53°32' E 009°55'0 0.0
2014-Jul-17 21:31N 53°32' E 009°55'0 0.0
2014-Jul-17 20:31N 53°32' E 009°55'0 0.0
2014-Jul-17 19:28N 53°32' E 009°55'0 0.1
2014-Jul-17 18:33N 53°32' E 009°55'1 1.4
2014-Jul-17 17:31N 53°32' E 009°58'0 0.0
2014-Jul-17 16:31N 53°32' E 009°58'0 0.0
2014-Jul-17 15:31N 53°32' E 009°58'0 0.0
2014-Jul-17 14:31N 53°32' E 009°58'0 0.0
2014-Jul-17 13:31N 53°32' E 009°58'1 0.9
2014-Jul-17 12:34N 53°32' E 009°56'2 2.2
2014-Jul-17 11:33N 53°30' E 009°58'0 0.0
2014-Jul-17 10:28N 53°30' E 009°58'0 0.0
2014-Jul-17 09:28N 53°30' E 009°58'0 0.0
2014-Jul-17 08:32N 53°30' E 009°58'0 0.0
2014-Jul-17 07:28N 53°30' E 009°58'0 0.0
2014-Jul-17 06:31N 53°30' E 009°58'0 0.1
2014-Jul-17 05:33N 53°30' E 009°58'0 0.4
2014-Jul-17 04:29N 53°30' E 009°57'0 0.0
2014-Jul-17 03:29N 53°30' E 009°57'0 0.0
2014-Jul-17 02:32N 53°30' E 009°57'0 0.0
2014-Jul-17 01:32N 53°30' E 009°57'0 0.0
2014-Jul-17 00:26N 53°30' E 009°57'0 0.0
2014-Jul-16 23:17N 53°30' E 009°57'0 0.0
2014-Jul-16 22:29N 53°30' E 009°57'0 0.0
2014-Jul-16 21:29N 53°30' E 009°57'0 0.0
2014-Jul-16 20:32N 53°30' E 009°57'0 0.0
2014-Jul-16 19:32N 53°30' E 009°57'0 0.0
2014-Jul-16 18:29N 53°30' E 009°57'0 0.0
2014-Jul-16 17:33N 53°30' E 009°57'1 0.5
2014-Jul-16 16:30N 53°30' E 009°58'0 0.0
2014-Jul-16 15:33N 53°30' E 009°58'0 0.0
2014-Jul-16 14:30N 53°30' E 009°58'0 0.0
2014-Jul-16 13:33N 53°30' E 009°58'3 2.9
2014-Jul-16 12:33N 53°32' E 009°55'1 0.6
2014-Jul-16 11:23N 53°32' E 009°55'0 0.0
2014-Jul-16 10:32N 53°32' E 009°55'0 0.0
2014-Jul-16 09:29N 53°32' E 009°55'0 0.0
2014-Jul-16 08:32N 53°32' E 009°55'0 0.0
2014-Jul-16 07:32N 53°32' E 009°55'0 0.0
2014-Jul-16 06:29N 53°32' E 009°55'0 0.1
2014-Jul-16 05:33N 53°32' E 009°55'2 2.0
2014-Jul-16 04:33N 53°30' E 009°57'0 0.4
2014-Jul-16 03:33N 53°30' E 009°58'0 0.0
2014-Jul-16 02:30N 53°30' E 009°58'0 0.0
2014-Jul-16 01:33N 53°30' E 009°58'0 0.0
2014-Jul-16 00:33N 53°30' E 009°58'0 0.0
2014-Jul-15 23:30N 53°30' E 009°58'0 0.0
2014-Jul-15 22:27N 53°30' E 009°58'0 0.0
2014-Jul-15 21:33N 53°30' E 009°58'0 0.0
2014-Jul-15 20:30N 53°30' E 009°58'0 0.0
2014-Jul-15 19:30N 53°30' E 009°58'0 0.0
2014-Jul-15 18:30N 53°30' E 009°58'2 2.3
2014-Jul-15 17:33N 53°32' E 009°56'2 2.2
2014-Jul-15 16:33N 53°32' E 009°60'0 0.0
2014-Jul-15 15:17N 53°32' E 009°60'0 0.0
2014-Jul-15 14:23N 53°32' E 009°60'0 0.0
2014-Jul-15 13:20N 53°32' E 009°60'0 0.0
2014-Jul-15 12:22N 53°32' E 009°60'0 0.0
2014-Jul-15 11:31N 53°32' E 009°60'0 0.0
2014-Jul-15 10:31N 53°32' E 009°60'2 2.4
2014-Jul-15 09:33N 53°32' E 009°56'2 1.7
2014-Jul-15 08:19N 53°30' E 009°57'0 0.0
2014-Jul-15 07:31N 53°30' E 009°57'0 0.0
2014-Jul-15 06:19N 53°30' E 009°57'0 0.0
2014-Jul-15 05:31N 53°30' E 009°57'0 0.0
2014-Jul-15 04:31N 53°30' E 009°57'0 0.0
2014-Jul-15 03:28N 53°30' E 009°57'0 0.0
2014-Jul-15 02:31N 53°30' E 009°57'0 0.0
2014-Jul-15 01:31N 53°30' E 009°57'0 0.0
2014-Jul-15 00:31N 53°30' E 009°57'0 0.0
2014-Jul-14 23:31N 53°30' E 009°57'0 0.0
2014-Jul-14 22:25N 53°30' E 009°57'0 0.0
2014-Jul-14 21:31N 53°30' E 009°57'0 0.0
2014-Jul-14 20:31N 53°30' E 009°57'3 3.0
2014-Jul-14 19:33N 53°32' E 009°54'8 7.9
2014-Jul-14 18:33N 53°34' E 009°41'8 7.7
2014-Jul-14 17:32N 53°39' E 009°31'9 9.3
2014-Jul-14 16:33N 53°47' E 009°23'1010.0
2014-Jul-14 15:33N 53°53' E 009°09'1111.0
2014-Jul-14 14:33N 53°50' E 008°51'1110.6
2014-Jul-14 13:33N 53°57' E 008°37'1111.4
2014-Jul-14 12:33N 53°59' E 008°18'9 8.9
2014-Jul-14 11:33N 53°54' E 008°07'8 8.2
2014-Jul-14 10:33N 53°46' E 008°11'8 7.7
2014-Jul-14 09:33N 53°41' E 008°22'9 8.8
2014-Jul-14 08:33N 53°35' E 008°32'4 3.5
2014-Jul-14 07:32N 53°31' E 008°32'0 0.0
2014-Jul-14 06:32N 53°31' E 008°32'0 0.0
2014-Jul-14 05:33N 53°31' E 008°32'0 0.0
2014-Jul-14 04:32N 53°31' E 008°32'  

Dump ship's entire track history